createdAt,value
2023-01-06T00:01:21.308Z,99305.59
2023-01-06T00:06:27.881Z,99299.50
2023-01-06T00:11:36.022Z,99302.69
2023-01-06T00:16:41.014Z,99297.13
2023-01-06T00:21:46.829Z,99299.78
2023-01-06T00:26:54.547Z,99295.53
2023-01-06T00:32:01.837Z,99288.66
2023-01-06T00:37:07.592Z,99298.47
2023-01-06T00:42:15.239Z,99299.25
2023-01-06T00:47:23.848Z,99286.25
2023-01-06T00:52:28.934Z,99279.94
2023-01-06T00:57:39.213Z,99288.66
2023-01-06T01:02:44.373Z,99296.06
2023-01-06T01:07:49.339Z,99294.47
2023-01-06T01:12:58.510Z,99295.00
2023-01-06T01:18:03.456Z,99295.03
2023-01-06T01:23:08.365Z,99299.25
2023-01-06T01:28:16.105Z,99294.22
2023-01-06T01:33:24.014Z,99291.84
2023-01-06T01:38:29.165Z,99296.63
2023-01-06T01:43:50.023Z,99284.44
2023-01-06T01:48:55.931Z,99277.00
2023-01-06T01:54:03.680Z,99280.19
2023-01-06T01:59:14.863Z,99281.00
2023-01-06T02:04:20.984Z,99287.34
2023-01-06T02:09:31.387Z,99272.50
2023-01-06T02:14:39.151Z,99260.84
2023-01-06T02:20:17.328Z,99257.41
2023-01-06T02:25:48.353Z,99240.50
2023-01-06T02:31:25.973Z,99236.75
2023-01-06T02:36:40.824Z,99222.47
2023-01-06T02:41:51.797Z,99208.34
2023-01-06T02:47:14.019Z,99219.50
2023-01-06T02:52:27.261Z,99208.66
2023-01-06T02:57:39.733Z,99213.97
2023-01-06T03:02:53.231Z,99213.44
2023-01-06T03:08:00.563Z,99207.09
2023-01-06T03:13:10.004Z,99182.75
2023-01-06T03:18:17.726Z,99185.66
2023-01-06T03:23:23.810Z,99202.59
2023-01-06T03:28:28.765Z,99189.13
2023-01-06T03:33:44.185Z,99175.41
2023-01-06T03:38:54.561Z,99172.38
2023-01-06T03:44:06.272Z,99174.75
2023-01-06T03:49:22.098Z,99166.31
2023-01-06T03:54:40.132Z,99162.66
2023-01-06T03:59:51.149Z,99151.03
2023-01-06T04:05:12.895Z,99147.31
2023-01-06T04:10:22.182Z,99145.75
2023-01-06T04:15:32.679Z,99148.41
2023-01-06T04:20:44.055Z,99143.09
2023-01-06T04:25:56.885Z,99141.75
2023-01-06T04:31:12.151Z,99131.44
2023-01-06T04:36:21.125Z,99132.53
2023-01-06T04:41:32.112Z,99121.94
2023-01-06T04:46:39.731Z,99125.09
2023-01-06T04:51:47.351Z,99105.50
2023-01-06T04:56:52.470Z,99106.06
2023-01-06T05:01:57.416Z,99117.47
2023-01-06T05:07:04.968Z,99120.63
2023-01-06T05:12:10.855Z,99108.25
2023-01-06T05:17:32.692Z,99101.91
2023-01-06T05:22:44.143Z,99099.78
2023-01-06T05:27:49.206Z,99103.25
2023-01-06T05:32:56.474Z,99105.59
2023-01-06T05:38:04.275Z,99096.88
2023-01-06T05:43:09.314Z,99091.34
2023-01-06T05:48:14.409Z,99091.06
2023-01-06T05:53:22.553Z,99081.28
2023-01-06T05:58:27.815Z,99085.00
2023-01-06T06:03:36.642Z,99084.47
2023-01-06T06:08:44.635Z,99080.25
2023-01-06T06:13:50.574Z,99081.31
2023-01-06T06:18:57.959Z,99081.03
2023-01-06T06:24:07.191Z,99075.22
2023-01-06T06:29:13.993Z,99078.13
2023-01-06T06:34:19.140Z,99068.06
2023-01-06T06:39:29.020Z,99053.25
2023-01-06T06:44:36.544Z,99059.63
2023-01-06T06:49:42.636Z,99064.09
2023-01-06T06:54:52.157Z,99051.41
2023-01-06T06:59:57.850Z,99044.22
2023-01-06T07:05:03.445Z,99048.47
2023-01-06T07:10:15.390Z,99040.75
2023-01-06T07:15:22.848Z,99050.53
2023-01-06T07:20:28.017Z,99049.63
2023-01-06T07:25:39.848Z,99045.75
2023-01-06T07:30:45.249Z,99038.84
2023-01-06T07:35:50.683Z,99043.31
2023-01-06T07:41:02.761Z,99030.28
2023-01-06T07:46:10.336Z,99026.56
2023-01-06T07:51:15.499Z,99025.50
2023-01-06T07:56:23.906Z,99007.50
2023-01-06T08:01:32.002Z,99004.31
2023-01-06T08:06:40.383Z,98999.75
2023-01-06T08:11:51.973Z,99003.13
2023-01-06T08:16:57.084Z,99005.22
2023-01-06T08:22:02.344Z,99000.44
2023-01-06T08:27:14.638Z,99013.31
2023-01-06T08:32:22.025Z,98997.81
2023-01-06T08:37:29.927Z,99003.50
2023-01-06T08:42:39.936Z,98986.97
2023-01-06T08:47:44.946Z,98989.78
2023-01-06T08:52:50.039Z,98986.44
2023-01-06T08:57:57.823Z,99002.53
2023-01-06T09:03:04.845Z,99001.84
2023-01-06T09:08:10.175Z,99003.69
2023-01-06T09:13:19.634Z,99001.63
2023-01-06T09:18:24.631Z,99002.31
2023-01-06T09:23:30.010Z,99005.91
2023-01-06T09:28:37.697Z,98999.47
2023-01-06T09:33:43.231Z,99007.13
2023-01-06T09:38:50.319Z,99007.00
2023-01-06T09:44:06.892Z,99015.09
2023-01-06T09:49:21.133Z,99012.81
2023-01-06T09:54:32.924Z,98999.81
2023-01-06T09:59:49.546Z,98994.44
2023-01-06T10:04:58.095Z,98987.59
2023-01-06T10:10:15.716Z,98979.91
2023-01-06T10:15:35.436Z,98972.78
2023-01-06T10:20:57.557Z,98958.22
2023-01-06T10:26:13.819Z,98949.19
2023-01-06T10:31:26.818Z,98933.94
2023-01-06T10:36:35.898Z,98943.50
2023-01-06T10:41:54.177Z,98935.41
2023-01-06T10:47:03.922Z,98927.56
2023-01-06T10:52:14.018Z,98913.38
2023-01-06T10:57:26.943Z,98915.63
2023-01-06T11:02:36.565Z,98899.66
2023-01-06T11:07:54.756Z,98888.91
2023-01-06T11:13:03.246Z,98887.72
2023-01-06T11:18:23.224Z,98886.75
2023-01-06T11:23:29.477Z,98894.81
2023-01-06T11:28:34.940Z,98891.69
2023-01-06T11:33:54.286Z,98876.47
2023-01-06T11:39:02.506Z,98879.03
2023-01-06T11:44:12.619Z,98892.44
2023-01-06T11:49:28.591Z,98884.34
2023-01-06T11:54:37.261Z,98888.31
2023-01-06T11:59:57.183Z,98891.06
2023-01-06T12:05:08.048Z,98890.31
2023-01-06T12:10:19.087Z,98883.19
2023-01-06T12:15:28.187Z,98885.94
2023-01-06T12:20:38.684Z,98889.03
2023-01-06T12:25:48.271Z,98895.38
2023-01-06T12:31:04.331Z,98900.41
2023-01-06T12:36:22.133Z,98891.03
2023-01-06T12:41:32.917Z,98898.41
2023-01-06T12:46:45.763Z,98904.19
2023-01-06T12:51:58.129Z,98900.78
2023-01-06T12:57:12.851Z,98899.22
2023-01-06T13:02:33.487Z,98899.81
2023-01-06T13:07:50.316Z,98893.84
2023-01-06T13:13:27.965Z,98882.88
2023-01-06T13:18:42.419Z,98887.03
2023-01-06T13:24:23.861Z,98897.44
2023-01-06T13:29:43.063Z,98861.50
2023-01-06T13:35:21.913Z,98874.91
2023-01-06T13:40:32.419Z,98875.88
2023-01-06T13:45:44.624Z,98887.00
2023-01-06T13:50:51.952Z,98892.06
2023-01-06T13:56:31.884Z,98882.41
2023-01-06T14:01:37.290Z,98886.84
2023-01-06T14:06:49.453Z,98883.19
2023-01-06T14:11:57.833Z,98892.66
2023-01-06T14:17:04.966Z,98899.50
2023-01-06T14:22:18.303Z,98904.56
2023-01-06T14:27:53.505Z,98917.94
2023-01-06T14:33:36.629Z,98919.13
2023-01-06T14:38:47.238Z,98922.34
2023-01-06T14:44:01.417Z,98929.84
2023-01-06T14:49:19.626Z,98925.03
2023-01-06T14:54:29.688Z,98925.91
2023-01-06T14:59:35.073Z,98926.47
2023-01-06T15:04:43.085Z,98935.34
2023-01-06T15:09:48.643Z,98937.50
2023-01-06T15:14:53.766Z,98943.69
2023-01-06T15:20:01.393Z,98941.75
2023-01-06T15:25:06.532Z,98954.94
2023-01-06T15:30:23.659Z,98946.47
2023-01-06T15:35:34.681Z,98944.97
2023-01-06T15:40:42.159Z,98946.06
2023-01-06T15:45:58.679Z,98956.22
2023-01-06T15:51:13.676Z,98961.03
2023-01-06T15:56:25.487Z,98958.06
2023-01-06T16:01:33.641Z,98971.72
2023-01-06T16:06:41.500Z,98965.47
2023-01-06T16:12:05.359Z,98965.81
2023-01-06T16:17:13.914Z,98966.06
2023-01-06T16:22:35.259Z,98981.78
2023-01-06T16:27:44.547Z,98976.47
2023-01-06T16:32:50.506Z,98991.53
2023-01-06T16:37:58.270Z,98987.75
2023-01-06T16:43:05.489Z,98995.78
2023-01-06T16:48:10.418Z,99007.59
2023-01-06T16:53:21.343Z,99007.63
2023-01-06T16:58:28.158Z,99012.66
2023-01-06T17:03:38.113Z,99013.50
2023-01-06T17:08:46.399Z,99014.78
2023-01-06T17:13:56.239Z,99014.75
2023-01-06T17:19:04.707Z,99025.00
2023-01-06T17:24:17.422Z,99036.56
2023-01-06T17:29:26.306Z,99028.31
2023-01-06T17:34:34.643Z,99031.13
2023-01-06T17:39:44.684Z,99030.47
2023-01-06T17:44:54.445Z,99027.31
2023-01-06T17:50:02.521Z,99032.63
2023-01-06T17:55:48.615Z,99049.06
2023-01-06T18:00:53.672Z,99055.69
2023-01-06T18:06:26.232Z,99054.94
2023-01-06T18:11:37.107Z,99059.00
2023-01-06T18:16:43.095Z,99061.09
2023-01-06T18:21:54.791Z,99062.09
2023-01-06T18:27:04.344Z,99064.66
2023-01-06T18:32:26.152Z,99077.44
2023-01-06T18:37:33.245Z,99082.16
2023-01-06T18:42:44.815Z,99085.66
2023-01-06T18:47:57.002Z,99087.00
2023-01-06T18:53:07.066Z,99089.66
2023-01-06T18:58:49.886Z,99087.34
2023-01-06T19:04:07.235Z,99077.78
2023-01-06T19:09:20.466Z,99090.22
2023-01-06T19:14:28.109Z,99105.59
2023-01-06T19:19:43.117Z,99115.75
2023-01-06T19:25:03.991Z,99112.94
2023-01-06T19:30:42.999Z,99117.97
2023-01-06T19:35:52.108Z,99120.38
2023-01-06T19:40:58.295Z,99109.59
2023-01-06T19:46:08.364Z,99125.03
2023-01-06T19:51:28.249Z,99121.69
2023-01-06T19:56:39.023Z,99123.22
2023-01-06T20:01:45.022Z,99117.16
2023-01-06T20:06:54.337Z,99128.03
2023-01-06T20:12:01.518Z,99146.22
2023-01-06T20:17:06.668Z,99157.09
2023-01-06T20:22:16.737Z,99149.59
2023-01-06T20:27:22.194Z,99151.41
2023-01-06T20:32:29.975Z,99156.69
2023-01-06T20:37:39.763Z,99159.94
2023-01-06T20:42:46.942Z,99152.31
2023-01-06T20:47:52.250Z,99151.91
2023-01-06T20:53:01.841Z,99156.09
2023-01-06T20:58:09.079Z,99159.06
2023-01-06T21:03:14.422Z,99175.75
2023-01-06T21:08:22.045Z,99168.84
2023-01-06T21:13:27.343Z,99171.16
2023-01-06T21:18:34.078Z,99168.38
2023-01-06T21:23:42.399Z,99164.19
2023-01-06T21:28:47.371Z,99169.78
2023-01-06T21:33:52.829Z,99171.63
2023-01-06T21:39:03.234Z,99166.47
2023-01-06T21:44:08.349Z,99159.00
2023-01-06T21:49:14.523Z,99166.44
2023-01-06T21:54:24.348Z,99174.41
2023-01-06T21:59:29.460Z,99165.84
2023-01-06T22:04:34.868Z,99170.63
2023-01-06T22:09:45.755Z,99175.09
2023-01-06T22:14:53.264Z,99188.88
2023-01-06T22:20:00.862Z,99180.72
2023-01-06T22:25:09.972Z,99185.50
2023-01-06T22:30:15.811Z,99181.72
2023-01-06T22:35:21.669Z,99185.38
2023-01-06T22:40:29.318Z,99191.69
2023-01-06T22:45:34.703Z,99192.69
2023-01-06T22:50:41.023Z,99189.06
2023-01-06T22:55:48.620Z,99192.47
2023-01-06T23:00:53.592Z,99183.09
2023-01-06T23:06:00.036Z,99187.38
2023-01-06T23:11:11.955Z,99192.66
2023-01-06T23:16:19.223Z,99191.38
2023-01-06T23:21:27.562Z,99180.41
2023-01-06T23:26:36.502Z,99176.78
2023-01-06T23:31:43.975Z,99190.06
2023-01-06T23:36:50.480Z,99182.63
2023-01-06T23:41:58.303Z,99190.16
2023-01-06T23:47:06.035Z,99176.50
2023-01-06T23:52:12.199Z,99170.25
2023-01-06T23:57:19.817Z,99174.22
